LVNO2: Poteau River At Loving, OK

Data processed at Sat Mar 10 2018 22:54


All information presented herein is the property of the government of the United States of America and may be revised or deleted at any time without prior notice.
Dissemination of this information without the expressed written consent of the Public Affairs Office, Tulsa District U.S. Army Corps of Engineers is strictly prohibited.
These data are gathered electronically and, as presented, have not undergone any form of quality control. These data are not guaranteed to be valid or correct.
Go to home page.
Go to station list.

Upstream stations:

Downstream station:
Previous Day
Next Day
Current Day
    
SHEF ID:       LVNO2     Poteau River at Loving, OK
STATION TYPE:  

                STAGE  RIV-FLOW  BAT-LOAD
                   ft       cfs      volt
              Ccp-Rev   Ccp-Rev   Ccp-Rev
(US/Central)
03/08 00:00     11.67       624     12.89
03/08 01:00     11.66       620     12.83
03/08 02:00     11.65       617     12.77
03/08 03:00     11.64       613     12.77
03/08 04:00     11.62       605     12.71
03/08 05:00     11.62       605     12.71
03/08 06:00     11.60       598     12.65
03/08 07:00     11.59       594     12.65
03/08 08:00     11.59       594     12.95
03/08 09:00     11.58       591     13.88
03/08 10:00     11.56       583     14.18
03/08 11:00     11.55       580     14.41
03/08 12:00     11.51       565     14.53
03/08 13:00     11.47       551     14.24
03/08 14:00     11.45       544     13.83
03/08 15:00     11.42       533     13.77
03/08 16:00     11.38       520     13.65
03/08 17:00     11.35       509     13.59
03/08 18:00     11.33       503     13.48
03/08 19:00     11.32       499     13.24
03/08 20:00     11.30       493     13.12
03/08 21:00     11.28       486     13.00
03/08 22:00     11.27       483     12.95
03/08 23:00     11.27       483     12.89